Time;durP1;ratioP1;P1;durP2;ratioP2;P2;SDS_P1;SDS_P2;PMS_P1;PMS_P2;Temp;Humidity;BMP_temperature;BMP_pressure;BME280_temperature;BME280_humidity;BME280_pressure;Samples;Min_cycle;Max_cycle;Signal;HPM_P1;HPM_P2
2022/01/05 00:05:50;;;;;;;1999.90;999.90;;;;;;;7.02;72.78;99207.75;15510730;28;20108;-65
2022/01/05 00:13:24;;;;;;;1999.90;999.90;;;;;;;7.05;73.13;99197.91;15525703;28;20137;-65
2022/01/05 00:20:57;;;;;;;1999.90;999.90;;;;;;;6.94;73.07;99203.91;15527679;28;20084;-66
2022/01/05 00:28:31;;;;;;;1999.90;999.90;;;;;;;6.98;73.51;99217.06;15533517;28;20065;-64
2022/01/05 00:36:05;;;;;;;1999.90;999.90;;;;;;;6.90;73.54;99207.72;15521510;28;20050;-64
2022/01/05 00:43:39;;;;;;;1999.90;999.90;;;;;;;7.05;73.80;99195.94;15518596;28;20478;-65
2022/01/05 00:51:12;;;;;;;1999.90;999.90;;;;;;;7.02;73.76;99190.28;15509314;28;20129;-65
2022/01/05 00:58:46;;;;;;;1999.90;999.90;;;;;;;7.08;73.73;99188.88;15524612;28;20038;-65
2022/01/05 01:06:18;;;;;;;1999.90;999.90;;;;;;;6.92;73.77;99181.28;15569115;28;20374;-65
2022/01/05 01:13:53;;;;;;;1999.90;999.90;;;;;;;7.07;73.93;99176.97;15556052;28;20038;-66
2022/01/05 01:21:26;;;;;;;1999.90;999.90;;;;;;;7.07;73.89;99181.72;15557883;28;20125;-65
2022/01/05 01:29:01;;;;;;;1999.90;999.90;;;;;;;7.12;73.35;99184.28;15513691;28;20053;-65
2022/01/05 01:36:34;;;;;;;1999.90;999.90;;;;;;;6.95;74.32;99199.16;15530265;28;20042;-65
2022/01/05 01:44:08;;;;;;;1999.90;999.90;;;;;;;7.00;74.35;99212.81;15515677;28;20125;-65
2022/01/05 01:51:41;;;;;;;1999.90;999.90;;;;;;;7.03;74.38;99200.22;15538660;28;20065;-65
2022/01/05 01:59:15;;;;;;;1999.90;999.90;;;;;;;7.10;73.94;99192.94;15525126;28;20578;-66
2022/01/05 02:06:48;;;;;;;1999.90;999.90;;;;;;;7.04;73.55;99174.09;15569826;28;20038;-66
2022/01/05 02:14:22;;;;;;;1999.90;999.90;;;;;;;6.95;73.54;99172.25;15538838;28;20067;-65
2022/01/05 02:21:56;;;;;;;1999.90;999.90;;;;;;;7.11;72.83;99191.00;15548259;28;20514;-65
2022/01/05 02:29:29;;;;;;;1999.90;999.90;;;;;;;6.88;73.61;99196.19;15552265;28;20065;-64
2022/01/05 02:37:03;;;;;;;1999.90;999.90;;;;;;;6.99;73.31;99207.63;15545732;28;20141;-65
2022/01/05 02:44:35;;;;;;;1999.90;999.90;;;;;;;6.88;72.73;99196.19;15528054;28;20073;-64
2022/01/05 02:52:09;;;;;;;1999.90;999.90;;;;;;;6.52;69.05;99196.91;15531721;28;20493;-63
2022/01/05 02:59:42;;;;;;;1999.90;999.90;;;;;;;6.36;68.19;99196.78;15540019;28;20052;-65
2022/01/05 03:07:16;;;;;;;1999.90;999.90;;;;;;;6.23;68.74;99195.09;15541131;28;20048;-65
2022/01/05 03:14:49;;;;;;;1999.90;999.90;;;;;;;6.42;67.95;99187.06;15571189;28;20486;-65
2022/01/05 03:22:23;;;;;;;1999.90;999.90;;;;;;;6.45;68.07;99180.84;15572187;28;20121;-65
2022/01/05 03:29:55;;;;;;;1999.90;999.90;;;;;;;6.45;68.07;99197.47;15569404;28;20100;-65
2022/01/05 03:37:29;;;;;;;1999.90;999.90;;;;;;;5.88;70.42;99198.16;15507438;28;20047;-65
2022/01/05 03:45:02;;;;;;;1999.90;999.90;;;;;;;5.75;71.64;99207.53;15540645;28;20195;-65
2022/01/05 03:52:36;;;;;;;1999.90;999.90;;;;;;;5.52;72.32;99201.50;15559305;28;20054;-65
2022/01/05 04:00:10;;;;;;;1999.90;999.90;;;;;;;5.46;73.25;99205.63;15560099;28;20045;-64
2022/01/05 04:07:47;;;;;;;1999.90;999.90;;;;;;;5.70;72.40;99221.56;15521022;28;20052;-65
2022/01/05 04:15:21;;;;;;;1999.90;999.90;;;;;;;5.65;72.98;99214.28;15528308;28;20054;-65
2022/01/05 04:22:55;;;;;;;1999.90;999.90;;;;;;;5.58;73.57;99219.53;15549799;28;20046;-64
2022/01/05 04:30:27;;;;;;;1999.90;999.90;;;;;;;5.38;74.16;99236.91;15527033;28;20137;-65
2022/01/05 04:38:01;;;;;;;1999.90;999.90;;;;;;;5.36;74.62;99233.69;15535442;28;20069;-65
2022/01/05 04:45:34;;;;;;;1999.90;999.90;;;;;;;5.64;73.52;99220.16;15555118;28;20069;-66
2022/01/05 04:53:10;;;;;;;1999.90;999.90;;;;;;;5.35;74.10;99235.63;15523568;28;20103;-65
2022/01/05 05:00:43;;;;;;;1999.90;999.90;;;;;;;5.71;73.22;99220.41;15562525;28;20491;-65
2022/01/05 05:08:24;;;;;;;1999.90;999.90;;;;;;;5.49;73.56;99221.56;15563948;28;20038;-65
2022/01/05 05:15:57;;;;;;;1999.90;999.90;;;;;;;5.41;74.02;99206.63;15520102;28;20412;-65
2022/01/05 05:23:31;;;;;;;1999.90;999.90;;;;;;;5.61;74.04;99204.22;15504185;28;20323;-65
2022/01/05 05:31:18;;;;;;;1999.90;999.90;;;;;;;5.68;73.68;99208.06;15532798;28;20093;-65
2022/01/05 05:38:52;;;;;;;1999.90;999.90;;;;;;;5.70;73.96;99218.81;15533059;28;20479;-65
2022/01/05 05:46:24;;;;;;;1999.90;999.90;;;;;;;5.63;73.64;99222.13;15559300;28;20034;-65
2022/01/05 05:53:58;;;;;;;1999.90;999.90;;;;;;;5.18;75.69;99217.16;15546532;28;20414;-65
2022/01/05 06:01:31;;;;;;;1999.90;999.90;;;;;;;5.33;74.95;99229.63;15524709;28;20049;-65
2022/01/05 06:09:07;;;;;;;1999.90;999.90;;;;;;;5.09;76.53;99235.75;15515446;28;20073;-65
2022/01/05 06:16:41;;;;;;;1999.90;999.90;;;;;;;5.26;75.60;99234.06;15516581;28;20526;-65
2022/01/05 06:24:15;;;;;;;1999.90;999.90;;;;;;;5.27;76.02;99242.03;15508077;28;20134;-64
2022/01/05 06:31:48;;;;;;;1999.90;999.90;;;;;;;5.33;75.02;99254.53;15530103;28;20034;-65
2022/01/05 06:39:22;;;;;;;1999.90;999.90;;;;;;;5.12;76.18;99271.06;15513199;28;20541;-65
2022/01/05 06:46:55;;;;;;;1999.90;999.90;;;;;;;5.06;75.95;99274.31;15543707;28;20124;-65
2022/01/05 06:54:30;;;;;;;1999.90;999.90;;;;;;;5.19;74.99;99287.91;15572947;28;20062;-65
2022/01/05 07:02:03;;;;;;;1999.90;999.90;;;;;;;5.08;75.70;99294.97;15607535;28;20533;-65
2022/01/05 07:09:37;;;;;;;1999.90;999.90;;;;;;;5.05;75.55;99314.97;15589713;28;20400;-65
2022/01/05 07:17:09;;;;;;;1999.90;999.90;;;;;;;4.90;75.92;99312.75;15566780;28;20050;-64
2022/01/05 07:24:43;;;;;;;1999.90;999.90;;;;;;;5.32;74.75;99319.28;15586645;28;20049;-65
2022/01/05 07:32:16;;;;;;;1999.90;999.90;;;;;;;5.14;74.86;99318.53;15625790;28;20073;-64
2022/01/05 07:39:50;;;;;;;1999.90;999.90;;;;;;;5.28;75.03;99314.72;15624256;28;20052;-65
2022/01/05 07:47:22;;;;;;;1999.90;999.90;;;;;;;5.14;74.81;99326.03;15623265;28;20065;-63
2022/01/05 07:54:56;;;;;;;1999.90;999.90;;;;;;;5.14;74.21;99320.50;15589161;28;20267;-63
2022/01/05 08:02:29;;;;;;;1999.90;999.90;;;;;;;5.18;74.18;99313.16;15612623;28;20483;-65
2022/01/05 08:10:03;;;;;;;1999.90;999.90;;;;;;;5.41;72.87;99314.50;15607578;28;20049;-65
2022/01/05 08:17:36;;;;;;;1999.90;999.90;;;;;;;5.12;73.57;99334.66;15558605;28;20037;-65
2022/01/05 08:25:12;;;;;;;1999.90;999.90;;;;;;;5.41;72.87;99333.88;15567974;28;20054;-64
2022/01/05 08:32:47;;;;;;;1999.90;999.90;;;;;;;5.40;72.39;99334.19;15570745;28;20362;-65
2022/01/05 08:40:24;;;;;;;1999.90;999.90;;;;;;;5.34;71.69;99338.31;15613559;28;20046;-63
2022/01/05 08:48:00;;;;;;;1999.90;999.90;;;;;;;5.47;71.49;99334.50;15581260;28;20050;-64
2022/01/05 08:55:37;;;;;;;1999.90;999.90;;;;;;;5.39;70.67;99338.94;15597594;28;20073;-63
2022/01/05 09:03:09;;;;;;;1999.90;999.90;;;;;;;5.48;70.50;99342.47;15620594;28;20129;-65
2022/01/05 09:10:44;;;;;;;1999.90;999.90;;;;;;;5.58;69.79;99343.25;15556570;28;20045;-65
2022/01/05 09:18:25;;;;;;;1999.90;999.90;;;;;;;6.18;68.40;99365.06;15611930;28;20048;-63
2022/01/05 09:26:13;;;;;;;1999.90;999.90;;;;;;;7.48;64.62;99375.72;15569499;28;20517;-64
2022/01/05 09:33:59;;;;;;;1999.90;999.90;;;;;;;9.00;60.01;99368.94;15495205;28;20051;-65
2022/01/05 09:42:01;;;;;;;1999.90;999.90;;;;;;;8.24;59.70;99365.09;15491317;28;20046;-64
2022/01/05 09:49:52;;;;;;;1999.90;999.90;;;;;;;9.93;55.75;99381.31;15552434;28;20096;-65
2022/01/05 09:57:42;;;;;;;1999.90;999.90;;;;;;;9.91;53.88;99391.22;15548941;28;20144;-65
2022/01/05 10:05:28;;;;;;;1999.90;999.90;;;;;;;8.55;56.93;99392.28;15554606;28;20056;-64
2022/01/05 10:13:16;;;;;;;1999.90;999.90;;;;;;;7.50;59.65;99394.81;15552335;28;20129;-64
2022/01/05 10:21:06;;;;;;;1999.90;999.90;;;;;;;7.43;58.79;99389.03;15554128;28;20449;-64
2022/01/05 10:28:55;;;;;;;1999.90;999.90;;;;;;;7.41;58.25;99394.94;15570672;28;20073;-64
2022/01/05 10:36:51;;;;;;;1999.90;999.90;;;;;;;7.46;58.85;99391.13;15501841;28;20047;-64
2022/01/05 10:44:41;;;;;;;1999.90;999.90;;;;;;;7.26;59.60;99383.69;15488979;28;20042;-63
2022/01/05 10:52:27;;;;;;;1999.90;999.90;;;;;;;7.17;58.65;99389.31;15525858;28;20042;-62
2022/01/05 11:00:13;;;;;;;1999.90;999.90;;;;;;;7.22;57.53;99381.59;15578968;28;20511;-61
2022/01/05 11:08:10;;;;;;;1999.90;999.90;;;;;;;8.89;54.27;99368.63;15562527;28;20069;-65
2022/01/05 11:16:02;;;;;;;1999.90;999.90;;;;;;;8.92;53.95;99379.84;15537247;28;20109;-64
2022/01/05 11:23:39;;;;;;;1999.90;999.90;;;;;;;7.88;56.27;99374.25;15582491;28;20527;-65
2022/01/05 11:31:12;;;;;;;1999.90;999.90;;;;;;;7.69;56.35;99377.59;15557665;28;20046;-65
2022/01/05 11:38:47;;;;;;;1999.90;999.90;;;;;;;8.95;53.56;99370.78;15577902;28;20104;-64
2022/01/05 11:46:21;;;;;;;1999.90;999.90;;;;;;;9.80;51.81;99368.66;15550012;28;20484;-66
2022/01/05 11:53:54;;;;;;;1999.90;999.90;;;;;;;8.46;53.96;99372.16;15559686;28;20078;-63
2022/01/05 12:01:36;;;;;;;1999.90;999.90;;;;;;;8.19;55.11;99366.13;15559115;28;20056;-66
2022/01/05 12:09:20;;;;;;;1999.90;999.90;;;;;;;7.55;56.48;99366.84;15605340;28;20052;-62
2022/01/05 12:17:14;;;;;;;1999.90;999.90;;;;;;;7.54;56.51;99351.34;15519166;28;20060;-66
2022/01/05 12:25:09;;;;;;;1999.90;999.90;;;;;;;7.26;57.64;99350.38;15561363;28;20406;-65
2022/01/05 12:32:46;;;;;;;1999.90;999.90;;;;;;;7.11;58.22;99354.63;15558103;28;20564;-64
2022/01/05 12:40:42;;;;;;;1999.90;999.90;;;;;;;7.25;58.19;99355.13;15574600;28;20136;-65
2022/01/05 12:48:52;;;;;;;1999.90;999.90;;;;;;;7.06;58.52;99346.50;15622368;28;20045;-66
2022/01/05 12:56:36;;;;;;;1999.90;999.90;;;;;;;7.06;59.48;99347.31;15598836;28;20473;-65
2022/01/05 13:04:18;;;;;;;1999.90;999.90;;;;;;;6.66;60.33;99342.34;15621992;28;20038;-67
2022/01/05 13:12:03;;;;;;;1999.90;999.90;;;;;;;6.57;60.82;99355.50;15570314;28;20046;-65
2022/01/05 13:19:51;;;;;;;1999.90;999.90;;;;;;;6.54;62.38;99355.34;15536227;28;20050;-65
2022/01/05 13:27:42;;;;;;;1999.90;999.90;;;;;;;6.09;64.29;99361.53;15559073;28;20112;-66
2022/01/05 13:35:37;;;;;;;1999.90;999.90;;;;;;;5.89;64.79;99348.44;15559008;28;20041;-66
2022/01/05 13:43:27;;;;;;;1999.90;999.90;;;;;;;6.13;64.18;99345.06;15571664;28;20072;-65
2022/01/05 13:51:07;;;;;;;1999.90;999.90;;;;;;;6.17;62.78;99335.75;15619779;28;20083;-66
2022/01/05 13:58:54;;;;;;;1999.90;999.90;;;;;;;6.32;62.95;99335.13;15584575;28;20070;-66
2022/01/05 14:06:40;;;;;;;1999.90;999.90;;;;;;;6.02;64.36;99350.19;15556444;28;20100;-65
2022/01/05 14:14:29;;;;;;;1999.90;999.90;;;;;;;5.55;69.29;99357.75;15564835;28;20124;-66
2022/01/05 14:22:19;;;;;;;1999.90;999.90;;;;;;;5.39;73.22;99361.06;15517509;28;20064;-65
2022/01/05 14:30:12;;;;;;;1999.90;999.90;;;;;;;5.17;75.52;99373.16;15541603;28;20595;-65
2022/01/05 14:38:05;;;;;;;1999.90;999.90;;;;;;;5.18;76.05;99360.16;15556218;28;20132;-65
2022/01/05 14:45:55;;;;;;;1999.90;999.90;;;;;;;5.33;74.49;99353.28;15611317;28;20044;-65
2022/01/05 14:53:52;;;;;;;1999.90;999.90;;;;;;;5.26;74.63;99353.78;15552817;28;20042;-65
2022/01/05 15:01:42;;;;;;;1999.90;999.90;;;;;;;5.26;74.55;99347.44;15550533;28;20041;-65
2022/01/05 15:09:31;;;;;;;1999.90;999.90;;;;;;;5.40;73.51;99348.03;15566029;28;20039;-65
2022/01/05 15:17:21;;;;;;;1999.90;999.90;;;;;;;5.62;73.17;99358.84;15492721;28;20073;-66
2022/01/05 15:25:08;;;;;;;1999.90;999.90;;;;;;;5.19;74.36;99357.06;15504630;28;20049;-66
2022/01/05 15:32:58;;;;;;;1999.90;999.90;;;;;;;5.35;73.19;99362.06;15503074;28;20054;-65
2022/01/05 15:40:45;;;;;;;1999.90;999.90;;;;;;;5.36;74.07;99394.09;15563329;28;20029;-65
2022/01/05 15:48:35;;;;;;;1999.90;999.90;;;;;;;5.68;74.27;99384.38;15624570;28;20462;-67
2022/01/05 15:56:34;;;;;;;1999.90;999.90;;;;;;;5.47;75.97;99392.59;15561931;28;20049;-65
2022/01/05 16:04:23;;;;;;;1999.90;999.90;;;;;;;5.26;77.64;99402.75;15585582;28;20077;-65
2022/01/05 16:12:12;;;;;;;1999.90;999.90;;;;;;;5.05;78.49;99406.22;15559665;28;20038;-62
2022/01/05 16:20:02;;;;;;;1999.90;999.90;;;;;;;5.09;79.02;99404.41;15554881;28;20042;-63
2022/01/05 16:27:47;;;;;;;1999.90;999.90;;;;;;;5.40;77.87;99404.16;15556783;28;20400;-66
2022/01/05 16:35:37;;;;;;;1999.90;999.90;;;;;;;5.34;78.42;99410.22;15529885;28;20050;-65
2022/01/05 16:43:22;;;;;;;1999.90;999.90;;;;;;;5.34;78.87;99422.09;15499032;28;20070;-65
2022/01/05 16:51:13;;;;;;;1999.90;999.90;;;;;;;5.50;78.59;99420.41;15559269;28;20050;-65
2022/01/05 17:06:43;;;;;;;1999.90;999.90;;;;;;;5.58;79.32;99418.75;15547668;28;20041;-65
2022/01/05 17:14:15;;;;;;;1999.90;999.90;;;;;;;5.47;79.85;99414.75;15495844;28;20046;-64
2022/01/05 17:21:49;;;;;;;1999.90;999.90;;;;;;;5.62;78.91;99419.72;15502395;28;20419;-65
2022/01/05 17:29:22;;;;;;;1999.90;999.90;;;;;;;5.88;78.97;99444.53;15564481;28;20118;-64
2022/01/05 17:36:56;;;;;;;1999.90;999.90;;;;;;;5.88;78.94;99457.56;15617588;28;20045;-64
2022/01/05 17:44:29;;;;;;;1999.90;999.90;;;;;;;6.05;77.69;99452.81;15595269;28;20056;-64
2022/01/05 17:52:03;;;;;;;1999.90;999.90;;;;;;;5.93;78.57;99438.81;15553660;28;20096;-64
2022/01/05 17:59:36;;;;;;;1999.90;999.90;;;;;;;6.17;76.92;99441.00;15533193;28;20488;-65
2022/01/05 18:07:10;;;;;;;1999.90;999.90;;;;;;;6.18;76.65;99453.69;15529860;28;20046;-64
2022/01/05 18:14:42;;;;;;;1999.90;999.90;;;;;;;6.42;76.39;99472.47;15493237;28;20046;-64
2022/01/05 18:22:18;;;;;;;1999.90;999.90;;;;;;;6.27;75.95;99476.63;15475249;28;20042;-67
2022/01/05 18:29:51;;;;;;;1999.90;999.90;;;;;;;5.90;77.10;99494.88;15546395;28;20077;-65
2022/01/05 18:37:32;;;;;;;1999.90;999.90;;;;;;;6.22;75.64;99503.69;15551524;28;20511;-66
2022/01/05 18:45:06;;;;;;;1999.90;999.90;;;;;;;6.20;75.68;99533.69;15535473;28;20053;-65
2022/01/05 18:52:40;;;;;;;1999.90;999.90;;;;;;;6.02;75.88;99533.75;15515010;28;20037;-65
2022/01/05 19:00:14;;;;;;;1999.90;999.90;;;;;;;6.31;74.94;99540.47;15565655;28;20683;-63
2022/01/05 19:07:50;;;;;;;1999.90;999.90;;;;;;;6.27;74.75;99553.38;15547733;28;20042;-66
2022/01/05 19:15:22;;;;;;;1999.90;999.90;;;;;;;6.51;74.49;99564.66;15561870;28;20103;-67
2022/01/05 19:23:15;;;;;;;1999.90;999.90;;;;;;;6.18;75.63;99566.44;15522300;28;20104;-61
2022/01/05 19:30:50;;;;;;;1999.90;999.90;;;;;;;6.29;75.52;99579.59;15545126;28;20034;-66
2022/01/05 19:38:27;;;;;;;1999.90;999.90;;;;;;;6.16;75.95;99596.44;15550432;28;20128;-63
2022/01/05 19:46:18;;;;;;;1999.90;999.90;;;;;;;6.18;75.93;99605.22;15548769;28;20093;-63
2022/01/05 19:54:07;;;;;;;1999.90;999.90;;;;;;;6.31;75.71;99626.38;15532367;28;20710;-63
2022/01/05 20:01:50;;;;;;;1999.90;999.90;;;;;;;6.50;74.52;99623.22;15564859;28;20042;-62
2022/01/05 20:09:24;;;;;;;1999.90;999.90;;;;;;;6.42;75.36;99635.94;15579511;28;20050;-60
2022/01/05 20:16:57;;;;;;;1999.90;999.90;;;;;;;6.35;75.36;99641.16;15557224;28;20555;-61
2022/01/05 20:24:31;;;;;;;1999.90;999.90;;;;;;;6.48;74.56;99648.50;15556913;28;20069;-62
2022/01/05 20:32:05;;;;;;;1999.90;999.90;;;;;;;6.55;73.82;99664.59;15529957;28;20065;-64
2022/01/05 20:39:39;;;;;;;1999.90;999.90;;;;;;;6.64;73.08;99674.50;15543996;28;20042;-64
2022/01/05 20:47:17;;;;;;;1999.90;999.90;;;;;;;6.70;72.84;99694.53;15525323;28;20045;-62
2022/01/05 20:54:51;;;;;;;1999.90;999.90;;;;;;;6.67;73.14;99695.22;15549666;28;20048;-60
2022/01/05 21:02:24;;;;;;;1999.90;999.90;;;;;;;6.75;72.25;99702.66;15556249;28;20121;-62
2022/01/05 21:09:58;;;;;;;1999.90;999.90;;;;;;;6.77;70.77;99714.22;15554127;28;20042;-62
2022/01/05 21:17:36;;;;;;;1999.90;999.90;;;;;;;6.69;70.56;99714.28;15519416;28;20068;-61
2022/01/05 21:25:12;;;;;;;1999.90;999.90;;;;;;;6.57;70.41;99726.06;15514885;28;20558;-62
2022/01/05 21:32:45;;;;;;;1999.90;999.90;;;;;;;6.41;70.76;99745.16;15514911;28;20627;-59
2022/01/05 21:40:19;;;;;;;;;;;;;;;6.19;71.41;99750.91;15543113;28;20046;-62
2022/01/05 21:47:52;;;;;;;1999.90;999.90;;;;;;;6.23;70.51;99758.22;15554923;28;19922;-60
2022/01/05 21:55:26;;;;;;;1999.90;999.90;;;;;;;6.16;70.88;99770.94;15513209;28;20095;-63
2022/01/05 22:02:59;;;;;;;1999.90;999.90;;;;;;;6.29;69.68;99786.56;15594687;28;20059;-64
2022/01/05 22:10:33;;;;;;;1999.90;999.90;;;;;;;5.95;71.22;99796.53;15554452;28;20072;-64
2022/01/05 22:18:06;;;;;;;1999.90;999.90;;;;;;;5.93;71.53;99803.50;15526147;28;20111;-65
2022/01/05 22:25:43;;;;;;;1999.90;999.90;;;;;;;5.74;72.08;99809.31;15539264;28;20042;-65
2022/01/05 22:33:15;;;;;;;1999.90;999.90;;;;;;;5.93;72.27;99825.66;15536944;28;20045;-65
2022/01/05 22:40:49;;;;;;;1999.90;999.90;;;;;;;5.99;72.51;99835.44;15574089;28;20049;-65
2022/01/05 22:48:22;;;;;;;1999.90;999.90;;;;;;;5.88;72.33;99845.16;15538669;28;20449;-65
2022/01/05 22:55:56;;;;;;;1999.90;999.90;;;;;;;6.18;71.46;99858.13;15535141;28;20052;-66
2022/01/05 23:03:29;;;;;;;1999.90;999.90;;;;;;;6.13;71.37;99857.44;15496684;28;20042;-65
2022/01/05 23:11:03;;;;;;;1999.90;999.90;;;;;;;6.06;70.31;99869.03;15557511;28;20053;-65
2022/01/05 23:18:38;;;;;;;1999.90;999.90;;;;;;;5.91;70.87;99875.00;15513005;28;20504;-65
2022/01/05 23:26:12;;;;;;;1999.90;999.90;;;;;;;5.90;70.05;99878.88;15531741;28;20077;-67
2022/01/05 23:33:45;;;;;;;1999.90;999.90;;;;;;;5.84;69.38;99888.50;15513324;28;20496;-65
2022/01/05 23:41:19;;;;;;;1999.90;999.90;;;;;;;5.83;69.73;99901.47;15528809;28;20495;-64
2022/01/05 23:48:53;;;;;;;1999.90;999.90;;;;;;;5.54;70.92;99904.81;15576244;28;20053;-63
2022/01/05 23:56:26;;;;;;;;;;;;;;;5.67;69.87;99919.69;15520654;28;20046;-64
